This is the latest recevied weather packets stored in our database for station/object WA9NNN-10. If no packets are shown the sender has not sent any weather packets the latest 1 day(s).
| Time | Temp. | Humidity | Pressure | Rain* | Wind** | Luminosity | Snow |
|---|---|---|---|---|---|---|---|
| 1778076098 | 12.22° C | 41% | 1013.7 hPa | 0 mm | - | - | - |
| 1778074297 | 11.11° C | 48% | 1013.3 hPa | 0 mm | - | - | - |
| 1778073697 | 10.56° C | 51% | 1013.2 hPa | 0 mm | - | - | - |
| 1778071897 | 9.44° C | 57% | 1013 hPa | 0 mm | - | - | - |
| 1778071297 | 8.89° C | 60% | 1012.9 hPa | 0 mm | - | - | - |
| 1778070697 | 8.89° C | 61% | 1012.8 hPa | 0 mm | - | - | - |
| 1778070097 | 8.33° C | 62% | 1012.7 hPa | 0 mm | - | - | - |
| 1778068897 | 7.78° C | 65% | 1012.7 hPa | 0 mm | - | - | - |
| 1778068297 | 7.78° C | 66% | 1012.6 hPa | 0 mm | - | - | - |
| 1778067697 | 7.22° C | 67% | 1012.4 hPa | 0 mm | - | - | - |
| 1778067097 | 7.22° C | 67% | 1012.3 hPa | 0 mm | - | - | - |
| 1778066498 | 6.67° C | 65% | 1012.4 hPa | 0 mm | - | - | - |
| 1778066197 | 6.67° C | 65% | 1012.3 hPa | 0 mm | - | - | - |
| 1778065297 | 6.67° C | 63% | 1012.2 hPa | 0 mm | - | - | - |
| 1778064697 | 6.67° C | 61% | 1012 hPa | 0 mm | - | - | - |
| 1778064097 | 7.22° C | 60% | 1011.7 hPa | 0 mm | - | - | - |
| 1778063797 | 7.22° C | 60% | 1011.7 hPa | 0 mm | - | - | - |
| 1778063497 | 7.22° C | 60% | 1011.5 hPa | 0 mm | - | - | - |
| 1778059897 | 8.33° C | 58% | 1011.4 hPa | 0 mm | - | - | - |
| 1778059596 | 8.33° C | 58% | 1011.4 hPa | 0 mm | - | - | - |
| 1778058996 | 7.78° C | 58% | 1011.6 hPa | 0 mm | - | - | - |
| 1778058697 | 7.78° C | 58% | 1011.6 hPa | 0 mm | - | - | - |
| 1778058397 | 7.78° C | 57% | 1011.7 hPa | 0 mm | - | - | - |
| 1778058098 | 7.78° C | 57% | 1011.9 hPa | 0 mm | - | - | - |
| 1778057497 | 8.33° C | 57% | 1011.4 hPa | 0 mm | - | - | - |
* Rain latest hour (hover to see other rain measurements)
** Current wind speed in m/s (hover to see current wind gust speed)